METAR
METAR

METAR

METAR EPSY 030500Z 24005KT 200V280 CAVOK 14/11 Q1012=
TAF EPSY 030230Z 0303/0312 25008KT CAVOK=
Ostrzeżenia
Ostrzeżenia

Ostrzeżenia

BRAK